Forside
METAR-TAF:

METAR-TAF

Lufthavne :

Schoolcraft County Airport

Manistique, Michigan, USA

Breddekreds: 45-58-29N, længdekreds: 086-10-19W, højde: 209 m

Aktuelle vejr

Denne rapport blev lavet for 10 minutter siden, kl. 06:56 UTC
Vind stille
Temperatur 1°C
Fugtighed 86%
Tryk 1021 hPa
Sigt: 16.1 km
skyfri

METAR: KISQ 210656Z AUTO 00000KT 10SM CLR 01/M01 A3016 RMK AO2 T00061006

Tid: 03:06 (07:06 UTC)


TAF: fraværende

Vejrobservationer og prognoser fra mere end 4000 lufthavne (METAR og TAF).

De gule og røde prikker repræsenterer de meteorologiske stationer.

Flyt musen over at se navnet på stationen.

Så klik over at se vejr observationer og prognoser.

At skifte det kort: Klik på de grønne knapper med et sort kors for at zoome ind; på den grønne knap med en bindestreg for at zoome ud; eller på de grønne pile for tilstødende kort.


METAR-TAF: